• Join FlightAware (Why Join?)
  • Login
  • US Flag 
09:44PM EDT


 

Airport Tracker/Info


-or-


 

Live Flight TrackerFlight Track Log ✈ SWA3561 ✈ 02-Dec-2013 ✈ KSAN - KSJC

Flight Track Log - Related Links

Times and Time Zones

All times are in EST time to prevent confusion due to time zone crossing. See the SWA3561 flight status page for this flight to view local times or setup timezone preferences in your user account.

Time Position Orientation Groundspeed Altitude Reporting Facility
EST Latitude Longitude Course Direction KTS MPH feet Rate Location/Type
11:25PM 32.7428 -117.2175 305° West 163 188 1,200  Level Los Angeles Center
11:26PM 32.7728 -117.2686 305° West 192 221 3,500 2,280 Climbing Los Angeles Center
11:27PM 32.8161 -117.3258 312° West 239 275 5,900 3,120 Climbing Los Angeles Center
11:28PM 32.8650 -117.3944 310° West 266 306 10,000 3,120 Climbing Los Angeles Center
11:29PM 32.9214 -117.4733 310° West 307 353 12,400 2,460 Climbing Los Angeles Center
11:31PM 32.9969 -117.5778 311° West 343 395 15,100 2,640 Climbing Los Angeles Center
11:32PM 33.0606 -117.6678 310° West 352 405 17,900 1,920 Climbing Los Angeles Center
11:33PM 33.1283 -117.7614 311° West 366 421 19,100 1,920 Climbing Los Angeles Center
11:34PM 33.1917 -117.8600 308° West 373 429 21,900 2,580 Climbing Los Angeles Center
11:35PM 33.2283 -117.9806 290° West 380 437 24,500 2,820 Climbing Los Angeles Center
11:36PM 33.2903 -118.0864 305° West 389 448 27,700 1,680 Climbing Los Angeles Center
11:37PM 33.3622 -118.1839 311° West 388 447 28,000 120 Climbing Los Angeles Center
11:38PM 33.4181 -118.2619 311° West 386 444 28,000  Level Los Angeles Center
11:39PM 33.5169 -118.3981 311° West 384 442 28,000  Level Los Angeles Center
11:40PM 33.5906 -118.4969 312° West 390 449 28,000  Level Los Angeles Center
11:41PM 33.6631 -118.5967 311° West 390 449 28,000  Level Los Angeles Center
11:42PM 33.7356 -118.6956 311° West 391 450 28,000  Level Los Angeles Center
11:43PM 33.8069 -118.7939 311° West 389 448 28,000  Level Los Angeles Center
11:44PM 33.8781 -118.8928 311° West 390 449 28,000  Level Los Angeles Center
11:45PM 33.9481 -118.9889 311° West 383 441 28,000  Level Los Angeles Center
11:46PM 34.0183 -119.0858 311° West 382 440 28,000  Level Los Angeles Center
11:47PM 34.0892 -119.1836 311° West 387 445 28,000  Level Los Angeles Center
11:48PM 34.1594 -119.2831 311° West 389 448 28,000  Level Los Angeles Center
11:49PM 34.2436 -119.4011 311° West 387 445 28,000  Level Los Angeles Center
11:50PM 34.3156 -119.5011 311° West 393 452 28,000  Level Los Angeles Center
11:51PM 34.3856 -119.5994 311° West 387 445 28,000  Level Los Angeles Center
11:52PM 34.4564 -119.6983 311° West 388 447 28,000  Level Los Angeles Center
11:53PM 34.5131 -119.7769 311° West 386 444 28,000  Level Los Angeles Center
11:54PM 34.6122 -119.8558 327° Northwest 391 450 28,000  Level Los Angeles Center
11:55PM 34.7183 -119.9444 326° Northwest 387 445 28,000  Level Los Angeles Center
11:56PM 34.8056 -120.0172 326° Northwest 382 440 28,000  Level Los Angeles Center
11:57PM 34.8942 -120.0892 326° Northwest 383 441 28,000  Level Los Angeles Center
11:58PM 34.9889 -120.1678 326° Northwest 380 437 28,000  Level Los Angeles Center
11:59PM 35.0744 -120.2392 326° Northwest 376 433 28,000  Level Los Angeles Center
12:00AM 35.1597 -120.3100 326° Northwest 374 430 28,000  Level Los Angeles Center
12:01AM 35.2450 -120.3825 325° Northwest 375 432 28,000  Level Los Angeles Center
12:02AM 35.3306 -120.4556 325° Northwest 377 434 28,000  Level Los Angeles Center
12:03AM 35.4183 -120.5303 325° Northwest 386 444 28,000  Level Los Angeles Center
12:04AM 35.5206 -120.6156 326° Northwest 377 434 28,000  Level Los Angeles Center
12:05AM 35.6064 -120.6883 325° Northwest 374 430 28,000  Level Los Angeles Center
12:06AM 35.6953 -120.7650 325° Northwest 380 437 28,000  Level Los Angeles Center
12:07AM 35.7819 -120.8381 326° Northwest 378 435 28,000  Level Los Angeles Center
12:08AM 35.8669 -120.9111 325° Northwest 376 433 28,000  Level Los Angeles Center
12:09AM 35.9522 -120.9842 325° Northwest 374 430 28,000  Level Los Angeles Center
12:11AM 36.0550 -121.0728 325° Northwest 374 430 28,000 -120 Level Oakland Center
12:12AM 36.1408 -121.1461 325° Northwest 376 433 27,800 -1,080 Descending Oakland Center
12:13AM 36.2211 -121.2156 325° Northwest 356 410 25,900 -1,920 Descending Oakland Center
12:14AM 36.2981 -121.2817 325° Northwest 340 391 24,000 -1,920 Descending Oakland Center
12:15AM 36.3806 -121.3303 335° Northwest 329 379 22,100 -2,100 Descending Oakland Center
12:16AM 36.4669 -121.3708 339° North 330 380 19,800 -2,220 Descending Oakland Center
12:17AM 36.5683 -121.4200 339° North 326 375 17,600 -1,980 Descending Oakland Center
12:18AM 36.6500 -121.4608 338° Northwest 318 366 15,800 -1,740 Descending Oakland Center
12:19AM 36.7272 -121.4994 338° Northwest 301 346 14,100 -1,740 Descending Oakland Center
12:20AM 36.8033 -121.5358 339° North 295 339 12,300 -1,560 Descending Oakland Center
12:21AM 36.8758 -121.5747 337° Northwest 283 326 11,000 -1,320 Descending Oakland Center
12:22AM 36.9425 -121.6069 339° North 263 303 9,700 -1,380 Descending Oakland Center
12:23AM 37.0069 -121.6400 338° Northwest 254 292 8,300 -1,380 Descending Oakland Center
12:24AM 37.0714 -121.6714 339° North 251 289 7,000 -960 Descending Oakland Center
12:25AM 37.1278 -121.6969 340° North 234 269 6,400 -1,260 Descending Oakland Center
12:26AM 37.1858 -121.7322 334° Northwest 221 254 4,500 -1,560 Descending Oakland Center
12:27AM 37.2286 -121.7850 316° Northwest 218 251 3,300 -1,020 Descending Oakland Center
12:28AM 37.2600 -121.8194 319° Northwest 178 205 2,500 -780 Descending Oakland Center
12:29AM 37.2881 -121.8536 316° Northwest 153 176 1,800 -720 Descending Oakland Center
12:30AM 37.3150 -121.8819 320° Northwest 140 161 1,100 -780 Descending Oakland Center
12:31AM 37.3481 -121.9161 321° Northwest 131 151 300 -840 Descending Oakland Center
12:33AM 37.3500 -121.9167 North  Level FlightAware Approximate